PTO1185 EDDW-EDDW

Flight info

Callsign PTO1185
Flight time 0h 18m
Altitude 2000
Route VFR
Aircraft DA42/L-S/L

Departure

Time 2026-05-06 15:58
Airport Bremen Airport (EDDW)

Arrival

Time 2026-05-06 16:16
Airport Bremen Airport (EDDW)
Time Latitude Longitude Altitude Speed Heading
2026-05-06 15:46 53.05093 8.78749 13 ft 0 kts 318°
2026-05-06 15:51 53.05094 8.78748 13 ft 1 kts 327°
2026-05-06 15:52 53.05095 8.78763 13 ft 4 kts 163°
2026-05-06 15:52 53.05059 8.78759 13 ft 7 kts 232°
2026-05-06 15:52 53.05021 8.78683 13 ft 10 kts 230°
2026-05-06 15:52 53.04951 8.78653 13 ft 12 kts 178°
2026-05-06 15:53 53.04858 8.78659 13 ft 14 kts 178°
2026-05-06 15:53 53.04780 8.78664 13 ft 7 kts 177°
2026-05-06 15:53 53.04774 8.78664 13 ft 0 kts 179°
2026-05-06 15:56 53.04742 8.78666 13 ft 12 kts 179°
2026-05-06 15:57 53.04686 8.78717 14 ft 8 kts 86°
2026-05-06 15:57 53.04687 8.78747 14 ft 17 kts 86°
2026-05-06 15:57 53.04700 8.79334 14 ft 78 kts 86°
2026-05-06 15:57 53.04728 8.80352 212 ft 90 kts 85°
2026-05-06 15:58 53.04754 8.81401 514 ft 96 kts 78°
2026-05-06 15:58 53.05079 8.82350 714 ft 100 kts 32°
2026-05-06 15:58 53.05775 8.82407 953 ft 112 kts 342°
2026-05-06 15:58 53.06383 8.81452 1046 ft 128 kts 315°
2026-05-06 15:59 53.06975 8.80253 1047 ft 139 kts 318°
2026-05-06 15:59 53.07635 8.79008 1025 ft 147 kts 319°
2026-05-06 15:59 53.08089 8.78157 1025 ft 150 kts 317°
2026-05-06 15:59 53.08779 8.76815 1004 ft 154 kts 316°
2026-05-06 16:00 53.09481 8.75452 1010 ft 155 kts 317°
2026-05-06 16:00 53.10225 8.74178 1026 ft 152 kts 324°
2026-05-06 16:00 53.11030 8.73023 998 ft 153 kts 325°
2026-05-06 16:00 53.11867 8.71932 963 ft 152 kts 331°
2026-05-06 16:01 53.12741 8.70943 980 ft 149 kts 330°
2026-05-06 16:01 53.13545 8.69961 1172 ft 139 kts 332°
2026-05-06 16:01 53.14312 8.69029 1321 ft 135 kts 330°
2026-05-06 16:01 53.15044 8.68098 1517 ft 130 kts 329°
2026-05-06 16:02 53.15710 8.67158 1787 ft 122 kts 327°
2026-05-06 16:02 53.16322 8.66160 1982 ft 124 kts 322°
2026-05-06 16:02 53.16920 8.65075 2113 ft 128 kts 321°
2026-05-06 16:02 53.17485 8.63993 2523 ft 117 kts 321°
2026-05-06 16:03 53.18032 8.63037 2872 ft 115 kts 326°
2026-05-06 16:03 53.18623 8.62066 3010 ft 126 kts 325°
2026-05-06 16:03 53.19286 8.61006 2993 ft 138 kts 324°
2026-05-06 16:03 53.19990 8.59864 3014 ft 143 kts 324°
2026-05-06 16:04 53.20814 8.59103 3021 ft 132 kts
2026-05-06 16:04 53.21486 8.59910 3019 ft 131 kts 70°
2026-05-06 16:04 53.21189 8.61338 3042 ft 149 kts 134°
2026-05-06 16:04 53.20126 8.61524 3033 ft 170 kts 201°
2026-05-06 16:05 53.19444 8.59987 2988 ft 171 kts 268°
2026-05-06 16:05 53.19857 8.58327 2983 ft 153 kts 326°
2026-05-06 16:05 53.20303 8.56720 3026 ft 167 kts 272°
2026-05-06 16:05 53.19723 8.55069 2999 ft 173 kts 209°
2026-05-06 16:06 53.18620 8.54946 2991 ft 157 kts 145°
2026-05-06 16:06 53.18157 8.56300 3000 ft 133 kts 77°
2026-05-06 16:06 53.18757 8.57312 3033 ft 132 kts 15°
2026-05-06 16:06 53.19620 8.56708 3059 ft 149 kts 322°
2026-05-06 16:07 53.20353 8.55494 3086 ft 149 kts 323°
2026-05-06 16:07 53.21074 8.54231 3062 ft 152 kts 323°
2026-05-06 16:07 53.21918 8.53254 3058 ft 143 kts 347°
2026-05-06 16:07 53.22797 8.52689 3140 ft 126 kts 347°
2026-05-06 16:08 53.23556 8.52163 3142 ft 111 kts 345°
2026-05-06 16:08 53.24173 8.51659 3175 ft 87 kts 344°
2026-05-06 16:08 53.24567 8.51178 3106 ft 68 kts 328°
2026-05-06 16:08 53.24987 8.50163 2970 ft 124 kts 289°
2026-05-06 16:09 53.24591 8.48859 2987 ft 140 kts 212°
2026-05-06 16:09 53.23653 8.48329 2858 ft 147 kts 166°
2026-05-06 16:09 53.22711 8.48964 2753 ft 145 kts 141°
2026-05-06 16:09 53.21961 8.49976 2799 ft 136 kts 121°
2026-05-06 16:10 53.21519 8.51088 3034 ft 93 kts 105°
2026-05-06 16:10 53.21117 8.52285 2682 ft 139 kts 122°
2026-05-06 16:10 53.20407 8.53391 2334 ft 159 kts 129°
2026-05-06 16:10 53.19603 8.54621 2431 ft 152 kts 129°
2026-05-06 16:11 53.18849 8.55918 2273 ft 160 kts 122°
2026-05-06 16:11 53.18134 8.57382 2076 ft 166 kts 121°
2026-05-06 16:11 53.17431 8.58913 1895 ft 167 kts 120°
2026-05-06 16:11 53.16745 8.60499 1708 ft 168 kts 119°
2026-05-06 16:12 53.16027 8.62005 1677 ft 165 kts 124°
2026-05-06 16:12 53.15276 8.63425 1656 ft 162 kts 124°
2026-05-06 16:12 53.14543 8.64830 1658 ft 159 kts 123°
2026-05-06 16:12 53.13837 8.66230 1643 ft 157 kts 121°
2026-05-06 16:13 53.13203 8.67706 1621 ft 155 kts 117°
2026-05-06 16:13 53.12598 8.69200 1558 ft 158 kts 116°
2026-05-06 16:13 53.11944 8.70672 1538 ft 159 kts 120°
2026-05-06 16:13 53.11292 8.72149 1496 ft 157 kts 116°
2026-05-06 16:14 53.10675 8.73628 1505 ft 156 kts 120°
2026-05-06 16:14 53.09799 8.74772 1439 ft 167 kts 149°
2026-05-06 16:14 53.08636 8.75066 1336 ft 170 kts 171°
2026-05-06 16:14 53.07485 8.75162 1204 ft 156 kts 171°
2026-05-06 16:15 53.06467 8.75272 1015 ft 141 kts 169°
2026-05-06 16:15 53.05592 8.75403 811 ft 115 kts 168°
2026-05-06 16:15 53.04876 8.75790 541 ft 99 kts 136°
2026-05-06 16:15 53.04642 8.76711 185 ft 87 kts 83°
2026-05-06 16:16 53.04663 8.77678 26 ft 79 kts 85°
2026-05-06 16:16 53.04677 8.78362 14 ft 35 kts 90°
2026-05-06 16:16 53.04699 8.78624 14 ft 16 kts 47°
2026-05-06 16:16 53.04775 8.78663 13 ft 8 kts 359°
2026-05-06 16:17 53.04802 8.78663 13 ft 1 kts 358°
2026-05-06 16:17 53.04832 8.78661 13 ft 7 kts 358°
2026-05-06 16:18 53.04891 8.78657 13 ft 9 kts 358°
2026-05-06 16:18 53.04957 8.78653 13 ft 9 kts
2026-05-06 16:18 53.05015 8.78688 13 ft 9 kts 39°
2026-05-06 16:18 53.05058 8.78757 13 ft 7 kts 46°
2026-05-06 16:19 53.05081 8.78765 13 ft 5 kts 315°
2026-05-06 16:19 53.05092 8.78750 13 ft 0 kts 317°